Aérodrome :
LOGIN :

S'inscrire | Disclaimer

   EN    FR    IT 

 










Légende :    VFR   VFR Marginal   IFR   IFR Intensif   IFR Très Intensif
Visi : 
Plafond : 
>= 8 km
>= 3000ft
5 à 8 km
1000 à 3000 ft
1500m à 5 km
500 à 1000 ft
800 à 1500m
200 à 500 ft
< 800m
< 200 ft
Symboles :   Orages  Brouillard  Fortes neiges  Fortes précipitations  Vent > 20 kt
SIGMETs :   Divers  Orages  Givrage  Turbulence  Onde Orograph.  Cendres Volcan.






- Altitude de l'aérodrome : 7 ft
- Code IATA : ESH


EGKA - Shoreham

DERNIER METAR :
  • 021050Z 22012KT 9999 FEW020 SCT026 10/06 Q1016

METARs EXPIRÉS :
  • 021020Z 21012KT 9999 BKN023 09/05 Q1016
  • 020950Z 24007KT 9999 FEW018 BKN043 09/05 Q1017

TAF TAF EGKA
Valide du 02 à 10h jusqu'au 02 à 18h UTC


021036Z 0210/0218 27009KT 9999 SCT030
PROB30
TEMPO 0214/0218 8000 -SHRA
ATIS : +44 1273 467 372



MET'MAP, la Météo Aéronautique d'un coup d'oeil ! - Copyright ORBIFLY Décembre 2007 - Disclaimer

ORBIFLY MET'MAP TEAM :

Programmation & Développement : Alexandra Zaïnal
Sur une idée originale de : Baudouin d'Aumeries
Assistance à la programmation : Marc-Olivier Méhu
Soutien technique & logistique : Manuel Goepfert

Contact : metmap@orbifly.com




SOURCES & CREDITS :

   NOAA